createdAt,value
2022-10-14T00:00:52.712Z,70.41
2022-10-14T00:03:55.895Z,68.56
2022-10-14T00:06:59.747Z,68.82
2022-10-14T00:10:02.245Z,68.67
2022-10-14T00:13:06.113Z,70.28
2022-10-14T00:16:15.871Z,69.66
2022-10-14T00:19:19.713Z,69.33
2022-10-14T00:22:23.528Z,68.78
2022-10-14T00:25:26.828Z,68.38
2022-10-14T00:28:29.384Z,69.03
2022-10-14T00:31:32.451Z,79.71
2022-10-14T00:34:35.481Z,83.66
2022-10-14T00:37:39.293Z,79.17
2022-10-14T00:40:41.774Z,72.64
2022-10-14T00:43:57.385Z,72.83
2022-10-14T00:46:59.879Z,71.35
2022-10-14T00:50:02.926Z,73.49
2022-10-14T00:53:06.967Z,73.69
2022-10-14T00:56:10.682Z,71.88
2022-10-14T00:59:13.643Z,69.32
2022-10-14T01:02:16.126Z,69.23
2022-10-14T01:05:21.540Z,68.70
2022-10-14T01:08:31.735Z,68.48
2022-10-14T01:11:41.675Z,68.08
2022-10-14T01:14:55.796Z,70.24
2022-10-14T01:18:08.627Z,70.40
2022-10-14T01:21:20.739Z,68.58
2022-10-14T01:24:39.503Z,66.25
2022-10-14T01:28:00.626Z,66.91
2022-10-14T01:31:08.084Z,67.78
2022-10-14T01:34:12.233Z,66.76
2022-10-14T01:37:19.277Z,67.71
2022-10-14T01:40:30.246Z,67.86
2022-10-14T01:43:35.277Z,66.88
2022-10-14T01:46:42.556Z,68.24
2022-10-14T01:49:48.871Z,70.03
2022-10-14T01:52:55.650Z,69.29
2022-10-14T01:55:59.637Z,70.10
2022-10-14T01:59:04.110Z,69.57
2022-10-14T02:02:08.164Z,69.47
2022-10-14T02:05:18.432Z,70.28
2022-10-14T02:08:29.888Z,70.15
2022-10-14T02:11:39.277Z,71.86
2022-10-14T02:14:51.037Z,72.60
2022-10-14T02:18:00.698Z,71.60
2022-10-14T02:21:11.533Z,72.08
2022-10-14T02:24:20.786Z,73.30
2022-10-14T02:27:26.840Z,73.65
2022-10-14T02:30:33.539Z,71.81
2022-10-14T02:33:42.385Z,71.63
2022-10-14T02:36:46.468Z,69.57
2022-10-14T02:39:54.910Z,72.19
2022-10-14T02:42:57.459Z,71.86
2022-10-14T02:46:02.648Z,72.27
2022-10-14T02:49:06.459Z,69.64
2022-10-14T02:52:08.938Z,69.33
2022-10-14T02:55:11.501Z,68.96
2022-10-14T02:58:13.954Z,68.21
2022-10-14T03:01:16.403Z,67.79
2022-10-14T03:04:20.158Z,67.26
2022-10-14T03:07:22.645Z,67.56
2022-10-14T03:10:25.099Z,68.71
2022-10-14T03:13:27.555Z,67.13
2022-10-14T03:16:29.990Z,66.66
2022-10-14T03:19:33.770Z,65.82
2022-10-14T03:22:36.472Z,65.67
2022-10-14T03:25:39.061Z,66.02
2022-10-14T03:28:41.516Z,66.79
2022-10-14T03:31:44.059Z,66.98
2022-10-14T03:34:47.928Z,67.08
2022-10-14T03:37:50.523Z,66.48
2022-10-14T03:40:52.979Z,67.08
2022-10-14T03:43:55.403Z,66.04
2022-10-14T03:46:58.119Z,66.79
2022-10-14T03:50:02.994Z,67.18
2022-10-14T03:53:05.635Z,66.74
2022-10-14T03:56:10.029Z,67.08
2022-10-14T03:59:12.487Z,65.97
2022-10-14T04:02:14.943Z,65.71
2022-10-14T04:05:18.709Z,65.67
2022-10-14T04:08:21.219Z,64.52
2022-10-14T04:11:23.673Z,64.05
2022-10-14T04:14:27.211Z,63.74
2022-10-14T04:17:29.654Z,65.43
2022-10-14T04:20:33.457Z,66.42
2022-10-14T04:23:36.819Z,67.01
2022-10-14T04:26:39.385Z,67.14
2022-10-14T04:29:41.847Z,67.30
2022-10-14T04:32:44.265Z,67.00
2022-10-14T04:35:48.250Z,67.63
2022-10-14T04:38:50.690Z,66.42
2022-10-14T04:41:53.173Z,66.40
2022-10-14T04:44:55.665Z,67.34
2022-10-14T04:47:58.210Z,68.72
2022-10-14T04:51:01.989Z,69.48
2022-10-14T04:54:04.797Z,68.69
2022-10-14T04:57:07.593Z,69.33
2022-10-14T05:00:11.771Z,68.20
2022-10-14T05:03:14.203Z,68.75
2022-10-14T05:06:18.016Z,68.44
2022-10-14T05:09:20.575Z,68.37
2022-10-14T05:12:23.654Z,68.04
2022-10-14T05:15:26.303Z,69.25
2022-10-14T05:18:28.731Z,70.68
2022-10-14T05:21:32.508Z,70.74
2022-10-14T05:24:35.014Z,70.70
2022-10-14T05:27:37.434Z,70.35
2022-10-14T05:30:39.876Z,71.06
2022-10-14T05:33:42.329Z,70.81
2022-10-14T05:36:46.406Z,69.88
2022-10-14T05:39:48.853Z,69.96
2022-10-14T05:42:51.295Z,69.67
2022-10-14T05:45:53.751Z,69.52
2022-10-14T05:48:57.077Z,69.49
2022-10-14T05:52:00.859Z,69.34
2022-10-14T05:55:04.066Z,69.30
2022-10-14T05:58:06.507Z,68.85
2022-10-14T06:01:10.966Z,68.43
2022-10-14T06:04:19.297Z,67.21
2022-10-14T06:07:23.198Z,65.99
2022-10-14T06:10:25.655Z,64.56
2022-10-14T06:13:28.135Z,63.16
2022-10-14T06:16:30.584Z,62.26
2022-10-14T06:19:33.599Z,60.46
2022-10-14T06:22:37.344Z,60.44
2022-10-14T06:25:40.227Z,59.16
2022-10-14T06:28:42.817Z,57.51
2022-10-14T06:31:45.313Z,57.79
2022-10-14T06:34:47.746Z,57.98
2022-10-14T06:37:51.506Z,57.97
2022-10-14T06:40:55.006Z,57.12
2022-10-14T06:43:57.747Z,58.45
2022-10-14T06:47:00.200Z,60.17
2022-10-14T06:50:02.669Z,60.23
2022-10-14T06:53:06.647Z,61.23
2022-10-14T06:56:11.880Z,61.14
2022-10-14T06:59:14.355Z,62.48
2022-10-14T07:02:16.935Z,62.43
2022-10-14T07:05:19.507Z,62.22
2022-10-14T07:08:23.420Z,62.05
2022-10-14T07:11:26.007Z,61.61
2022-10-14T07:14:28.634Z,61.23
2022-10-14T07:17:31.179Z,61.84
2022-10-14T07:20:34.791Z,61.34
2022-10-14T07:23:38.689Z,61.34
2022-10-14T07:26:41.168Z,61.08
2022-10-14T07:29:43.968Z,60.99
2022-10-14T07:32:46.569Z,61.06
2022-10-14T07:35:49.017Z,59.93
2022-10-14T07:38:52.780Z,60.22
2022-10-14T07:41:55.901Z,60.66
2022-10-14T07:44:58.441Z,59.93
2022-10-14T07:48:00.924Z,59.86
2022-10-14T07:51:03.844Z,59.69
2022-10-14T07:54:10.306Z,59.33
2022-10-14T07:57:13.035Z,59.45
2022-10-14T08:00:15.657Z,59.28
2022-10-14T08:03:19.446Z,59.51
2022-10-14T08:06:22.045Z,61.92
2022-10-14T08:12:29.276Z,60.34
2022-10-14T08:15:34.723Z,59.86
2022-10-14T08:18:37.241Z,60.61
2022-10-14T08:21:39.682Z,60.33
2022-10-14T08:24:44.345Z,60.24
2022-10-14T08:27:52.494Z,59.95
2022-10-14T08:30:54.949Z,59.75
2022-10-14T08:33:58.221Z,59.21
2022-10-14T08:37:02.272Z,57.60
2022-10-14T08:40:07.601Z,58.23
2022-10-14T08:43:19.506Z,57.40
2022-10-14T08:46:24.725Z,57.06
2022-10-14T08:49:33.396Z,57.45
2022-10-14T08:52:40.700Z,56.03
2022-10-14T08:55:47.548Z,56.19
2022-10-14T08:58:51.876Z,56.77
2022-10-14T09:01:58.608Z,56.10
2022-10-14T09:05:02.233Z,55.78
2022-10-14T09:08:06.238Z,55.96
2022-10-14T09:11:14.449Z,53.64
2022-10-14T09:14:20.812Z,52.13
2022-10-14T09:17:27.848Z,53.22
2022-10-14T09:20:30.425Z,54.53
2022-10-14T09:23:32.894Z,53.89
2022-10-14T09:26:42.209Z,54.43
2022-10-14T09:29:49.606Z,54.38
2022-10-14T09:32:55.181Z,53.73
2022-10-14T09:39:05.370Z,53.12
2022-10-14T09:42:16.578Z,52.69
2022-10-14T09:45:22.785Z,51.83
2022-10-14T09:48:37.704Z,51.58
2022-10-14T09:51:43.597Z,51.65
2022-10-14T09:54:46.283Z,51.62
2022-10-14T09:57:59.485Z,51.33
2022-10-14T10:01:03.478Z,49.72
2022-10-14T10:04:27.325Z,47.33
2022-10-14T10:07:33.644Z,46.76
2022-10-14T10:10:36.191Z,46.15
2022-10-14T10:13:44.877Z,45.97
2022-10-14T10:16:48.797Z,44.76
2022-10-14T10:19:55.337Z,44.74
2022-10-14T10:22:59.934Z,44.80
2022-10-14T10:26:21.491Z,45.26
2022-10-14T10:29:29.067Z,45.73
2022-10-14T10:32:38.889Z,46.76
2022-10-14T10:35:55.863Z,46.76
2022-10-14T10:39:02.625Z,46.70
2022-10-14T10:42:15.962Z,47.19
2022-10-14T10:45:36.774Z,45.61
2022-10-14T10:48:46.203Z,45.38
2022-10-14T10:51:55.351Z,44.72
2022-10-14T10:55:10.244Z,44.46
2022-10-14T10:58:27.622Z,45.69
2022-10-14T11:01:43.740Z,47.13
2022-10-14T11:04:51.580Z,47.13
2022-10-14T11:08:16.235Z,46.92
2022-10-14T11:11:43.669Z,46.70
2022-10-14T11:15:26.190Z,46.07
2022-10-14T11:18:39.078Z,45.16
2022-10-14T11:21:48.220Z,45.77
2022-10-14T11:25:03.646Z,45.05
2022-10-14T11:28:11.945Z,44.85
2022-10-14T11:31:26.827Z,44.95
2022-10-14T11:34:43.764Z,45.39
2022-10-14T11:37:58.527Z,45.28
2022-10-14T11:41:07.069Z,45.54
2022-10-14T11:44:16.589Z,44.69
2022-10-14T11:47:24.740Z,43.69
2022-10-14T11:50:32.881Z,43.90
2022-10-14T11:53:44.382Z,43.28
2022-10-14T11:56:53.954Z,44.05
2022-10-14T12:00:17.755Z,44.28
2022-10-14T12:03:37.877Z,44.02
2022-10-14T12:06:45.715Z,43.92
2022-10-14T12:09:57.376Z,43.83
2022-10-14T12:13:07.801Z,44.05
2022-10-14T12:16:14.952Z,44.01
2022-10-14T12:19:23.555Z,44.92
2022-10-14T12:22:30.190Z,45.05
2022-10-14T12:25:40.434Z,44.56
2022-10-14T12:28:43.942Z,44.80
2022-10-14T12:31:51.690Z,43.86
2022-10-14T12:34:55.528Z,43.43
2022-10-14T12:38:04.556Z,43.52
2022-10-14T12:41:39.346Z,42.52
2022-10-14T12:44:48.662Z,43.73
2022-10-14T12:48:06.869Z,44.28
2022-10-14T12:51:13.291Z,43.83
2022-10-14T12:54:17.442Z,44.51
2022-10-14T12:57:27.786Z,44.35
2022-10-14T13:00:33.032Z,43.88
2022-10-14T13:03:46.559Z,43.52
2022-10-14T13:07:39.812Z,43.24
2022-10-14T13:10:50.447Z,43.81
2022-10-14T13:14:02.705Z,44.35
2022-10-14T13:17:43.291Z,43.96
2022-10-14T13:20:52.362Z,43.76
2022-10-14T13:23:55.755Z,44.31
2022-10-14T13:27:08.783Z,43.96
2022-10-14T13:30:19.574Z,43.84
2022-10-14T13:33:27.490Z,44.12
2022-10-14T13:36:36.558Z,41.89
2022-10-14T13:39:39.027Z,40.66
2022-10-14T13:42:43.234Z,41.48
2022-10-14T13:45:51.591Z,41.95
2022-10-14T13:48:57.740Z,41.09
2022-10-14T13:52:04.354Z,41.30
2022-10-14T13:55:14.754Z,41.40
2022-10-14T13:58:20.586Z,41.07
2022-10-14T14:01:25.736Z,41.90
2022-10-14T14:04:31.579Z,50.28
2022-10-14T14:08:08.482Z,53.25
2022-10-14T14:11:16.112Z,48.11
2022-10-14T14:14:23.932Z,52.77
2022-10-14T14:17:27.589Z,50.03
2022-10-14T14:20:33.868Z,47.42
2022-10-14T14:23:36.414Z,47.18
2022-10-14T14:26:40.461Z,47.98
2022-10-14T14:29:46.962Z,48.72
2022-10-14T14:32:49.607Z,48.80
2022-10-14T14:35:55.837Z,48.24
2022-10-14T14:39:01.187Z,47.58
2022-10-14T14:42:03.605Z,47.89
2022-10-14T14:45:13.907Z,47.40
2022-10-14T14:48:17.606Z,48.04
2022-10-14T14:51:20.403Z,47.91
2022-10-14T14:54:24.421Z,48.11
2022-10-14T14:57:26.908Z,48.48
2022-10-14T15:00:31.141Z,49.51
2022-10-14T15:04:13.163Z,49.54
2022-10-14T15:07:21.353Z,48.74
2022-10-14T15:10:27.721Z,49.10
2022-10-14T15:13:45.975Z,48.50
2022-10-14T15:16:54.276Z,49.14
2022-10-14T15:19:58.097Z,49.25
2022-10-14T15:23:00.674Z,48.48
2022-10-14T15:26:03.104Z,48.85
2022-10-14T15:29:18.636Z,49.35
2022-10-14T15:32:22.991Z,49.76
2022-10-14T15:35:26.459Z,49.51
2022-10-14T15:41:38.622Z,49.98
2022-10-14T15:44:41.156Z,50.53
2022-10-14T15:47:45.039Z,50.70
2022-10-14T15:50:48.617Z,50.30
2022-10-14T15:53:51.788Z,50.71
2022-10-14T15:59:59.061Z,50.97
2022-10-14T16:03:03.747Z,51.40
2022-10-14T16:06:06.687Z,51.73
2022-10-14T16:09:09.295Z,52.52
2022-10-14T16:12:13.734Z,52.42
2022-10-14T16:15:33.245Z,53.00
2022-10-14T16:18:37.032Z,54.10
2022-10-14T16:21:40.281Z,54.13
2022-10-14T16:24:42.731Z,53.97
2022-10-14T16:27:45.221Z,54.38
2022-10-14T16:30:50.389Z,57.00
2022-10-14T16:33:55.507Z,58.13
2022-10-14T16:36:57.928Z,57.36
2022-10-14T16:40:00.554Z,57.29
2022-10-14T16:43:03.054Z,58.85
2022-10-14T16:46:09.336Z,58.34
2022-10-14T16:49:15.851Z,59.52
2022-10-14T16:52:20.023Z,60.55
2022-10-14T16:55:23.937Z,60.54
2022-10-14T16:58:27.711Z,61.57
2022-10-14T17:01:30.456Z,60.91
2022-10-14T17:04:34.282Z,60.65
2022-10-14T17:07:36.761Z,61.17
2022-10-14T17:10:39.532Z,61.60
2022-10-14T17:13:41.942Z,62.40
2022-10-14T17:16:46.127Z,62.63
2022-10-14T17:19:50.665Z,63.25
2022-10-14T17:22:53.094Z,63.09
2022-10-14T17:25:55.552Z,61.99
2022-10-14T17:28:58.866Z,61.44
2022-10-14T17:32:01.339Z,62.36
2022-10-14T17:35:06.220Z,61.06
2022-10-14T17:38:09.419Z,60.06
2022-10-14T17:41:13.696Z,60.26
2022-10-14T17:44:16.168Z,59.85
2022-10-14T17:47:18.817Z,59.72
2022-10-14T17:50:22.834Z,59.34
2022-10-14T17:53:26.040Z,59.27
2022-10-14T17:56:30.624Z,59.60
2022-10-14T17:59:33.087Z,61.74
2022-10-14T18:02:35.563Z,60.03
2022-10-14T18:05:43.973Z,60.18
2022-10-14T18:08:52.391Z,59.86
2022-10-14T18:12:10.655Z,61.93
2022-10-14T18:15:13.310Z,61.45
2022-10-14T18:18:15.837Z,61.49
2022-10-14T18:21:20.138Z,60.04
2022-10-14T18:24:22.931Z,60.24
2022-10-14T18:27:25.768Z,59.33
2022-10-14T18:30:28.319Z,59.16
2022-10-14T18:33:32.976Z,59.67
2022-10-14T18:36:36.810Z,59.10
2022-10-14T18:39:39.306Z,58.83
2022-10-14T18:42:41.729Z,58.57
2022-10-14T18:45:44.154Z,58.61
2022-10-14T18:48:48.248Z,58.96
2022-10-14T18:51:53.429Z,59.03
2022-10-14T18:54:55.874Z,58.12
2022-10-14T18:57:58.298Z,58.00
2022-10-14T19:01:01.265Z,58.15
2022-10-14T19:04:05.682Z,58.24
2022-10-14T19:07:09.445Z,58.03
2022-10-14T19:10:11.915Z,58.18
2022-10-14T19:13:14.344Z,58.72
2022-10-14T19:16:18.654Z,58.39
2022-10-14T19:19:21.190Z,58.98
2022-10-14T19:22:25.233Z,58.71
2022-10-14T19:25:28.092Z,59.10
2022-10-14T19:28:30.582Z,59.45
2022-10-14T19:31:35.395Z,59.45
2022-10-14T19:34:38.041Z,59.19
2022-10-14T19:37:41.781Z,59.72
2022-10-14T19:40:44.232Z,59.62
2022-10-14T19:43:46.782Z,59.06
2022-10-14T19:46:49.266Z,58.82
2022-10-14T19:49:51.706Z,59.05
2022-10-14T19:52:55.458Z,59.15
2022-10-14T19:56:03.754Z,58.50
2022-10-14T19:59:06.255Z,58.63
2022-10-14T20:02:09.517Z,58.94
2022-10-14T20:05:11.939Z,71.10
2022-10-14T20:11:24.813Z,65.41
2022-10-14T20:14:27.948Z,64.71
2022-10-14T20:17:30.518Z,63.90
2022-10-14T20:20:33.366Z,62.91
2022-10-14T20:23:38.951Z,62.85
2022-10-14T20:26:41.503Z,63.64
2022-10-14T20:29:44.038Z,62.23
2022-10-14T20:32:46.553Z,62.24
2022-10-14T20:35:49.091Z,61.29
2022-10-14T20:38:52.890Z,60.72
2022-10-14T20:41:55.353Z,61.14
2022-10-14T20:44:57.860Z,60.85
2022-10-14T20:48:00.285Z,60.83
2022-10-14T20:51:05.587Z,60.41
2022-10-14T20:54:11.747Z,60.69
2022-10-14T20:57:14.486Z,60.52
2022-10-14T21:00:17.419Z,60.68
2022-10-14T21:03:19.856Z,60.80
2022-10-14T21:06:24.897Z,61.09
2022-10-14T21:09:29.610Z,60.97
2022-10-14T21:12:32.040Z,61.35
2022-10-14T21:15:34.510Z,61.20
2022-10-14T21:18:36.962Z,60.19
2022-10-14T21:21:43.151Z,60.82
2022-10-14T21:24:47.072Z,61.21
2022-10-14T21:27:49.491Z,61.16
2022-10-14T21:30:52.182Z,61.69
2022-10-14T21:34:05.047Z,61.81
2022-10-14T21:37:08.133Z,60.09
2022-10-14T21:40:12.975Z,59.58
2022-10-14T21:43:15.418Z,59.98
2022-10-14T21:46:18.225Z,59.36
2022-10-14T21:49:20.751Z,58.73
2022-10-14T21:52:23.986Z,58.25
2022-10-14T21:55:28.030Z,58.77
2022-10-14T21:58:31.541Z,58.53
2022-10-14T22:01:34.720Z,58.95
2022-10-14T22:04:38.395Z,57.72
2022-10-14T22:07:40.933Z,57.71
2022-10-14T22:10:45.399Z,58.28
2022-10-14T22:13:48.227Z,57.62
2022-10-14T22:16:50.882Z,58.13
2022-10-14T22:19:53.331Z,57.94
2022-10-14T22:22:55.863Z,56.76
2022-10-14T22:26:01.562Z,56.95
2022-10-14T22:29:06.753Z,56.98
2022-10-14T22:32:09.192Z,57.57
2022-10-14T22:35:11.659Z,57.04
2022-10-14T22:38:14.077Z,57.35
2022-10-14T22:41:19.549Z,58.36
2022-10-14T22:44:22.002Z,59.33
2022-10-14T22:47:24.909Z,59.77
2022-10-14T22:50:27.715Z,60.92
2022-10-14T22:53:30.318Z,61.01
2022-10-14T22:56:34.333Z,61.21
2022-10-14T22:59:36.758Z,61.05
2022-10-14T23:02:39.246Z,61.12
2022-10-14T23:05:41.900Z,61.03
2022-10-14T23:08:44.691Z,61.76
2022-10-14T23:11:48.447Z,62.05
2022-10-14T23:14:51.359Z,62.80
2022-10-14T23:17:53.770Z,63.17
2022-10-14T23:20:56.776Z,63.28
2022-10-14T23:24:01.887Z,63.01
2022-10-14T23:27:05.630Z,63.36
2022-10-14T23:30:09.034Z,62.71
2022-10-14T23:33:11.816Z,61.67
2022-10-14T23:36:15.853Z,62.05
2022-10-14T23:39:18.303Z,62.85
2022-10-14T23:42:22.070Z,62.64
2022-10-14T23:45:24.610Z,62.46
2022-10-14T23:48:27.738Z,62.78
2022-10-14T23:51:30.985Z,62.65
2022-10-14T23:54:33.445Z,62.62
2022-10-14T23:57:37.201Z,62.29
